Terminal Aerodrome Forecast
Issued by NWS

Home | Current Version | Previous Version | Text Only | Print | Product List | Glossary On
Versions: 1 2 3 4 5 6 7 8 9 10 11 12 13 14 15 16
000
FTUS46 KMTR 201100
TAFSNS
TAF
KSNS 201126Z 2012/2112 26006KT 6SM BR OVC006
     FM201700 VRB03KT P6SM SCT010
     FM202000 28012KT P6SM SKC
     FM210200 30005KT P6SM BKN006
     FM210900 VRB03KT P6SM OVC006=

USA.gov is the U.S. government's official web portal to all federal, state and local government web resources and services.